createdAt,value
2019-02-23T00:00:12.599Z,12.30
2019-02-23T00:02:45.612Z,15.10
2019-02-23T00:05:19.130Z,12.93
2019-02-23T00:07:52.680Z,15.33
2019-02-23T00:10:26.241Z,20.43
2019-02-23T00:13:02.712Z,13.30
2019-02-23T00:15:38.120Z,11.13
2019-02-23T00:18:12.849Z,13.60
2019-02-23T00:20:46.290Z,19.57
2019-02-23T00:23:22.147Z,13.50
2019-02-23T00:25:55.585Z,13.77
2019-02-23T00:28:29.045Z,11.87
2019-02-23T00:34:30.786Z,11.70
2019-02-23T00:37:04.228Z,13.73
2019-02-23T00:39:37.775Z,13.83
2019-02-23T00:42:11.215Z,11.10
2019-02-23T00:44:44.909Z,11.33
2019-02-23T00:47:18.352Z,13.17
2019-02-23T00:49:51.821Z,15.00
2019-02-23T00:52:27.397Z,13.50
2019-02-23T00:55:00.923Z,13.43
2019-02-23T00:57:34.393Z,11.83
2019-02-23T01:00:10.403Z,14.20
2019-02-23T01:02:43.878Z,14.03
2019-02-23T01:05:17.454Z,15.53
2019-02-23T01:07:53.416Z,15.07
2019-02-23T01:10:26.971Z,15.10
2019-02-23T01:13:02.184Z,15.63
2019-02-23T01:15:35.633Z,15.37
2019-02-23T01:18:13.363Z,14.93
2019-02-23T01:20:49.609Z,13.87
2019-02-23T01:23:24.773Z,16.10
2019-02-23T01:25:58.277Z,13.83
2019-02-23T01:28:31.773Z,15.03
2019-02-23T01:31:06.961Z,15.13
2019-02-23T01:33:40.470Z,15.93
2019-02-23T01:36:17.082Z,14.90
2019-02-23T01:38:52.276Z,14.97
2019-02-23T01:41:25.754Z,16.03
2019-02-23T01:44:00.562Z,14.80
2019-02-23T01:46:35.598Z,14.83
2019-02-23T01:49:09.170Z,15.47
2019-02-23T01:54:44.375Z,15.17
2019-02-23T01:57:17.844Z,16.20
2019-02-23T01:59:51.413Z,16.67
2019-02-23T02:02:24.890Z,15.77
2019-02-23T02:04:58.378Z,16.93
2019-02-23T02:07:37.970Z,15.53
2019-02-23T02:10:15.044Z,14.80
2019-02-23T02:12:50.145Z,15.13
2019-02-23T02:15:29.785Z,11.70
2019-02-23T02:18:05.917Z,12.87
2019-02-23T02:20:39.430Z,10.37
2019-02-23T02:23:12.868Z,10.87
2019-02-23T02:25:46.344Z,10.37
2019-02-23T02:28:19.781Z,11.73
2019-02-23T02:30:59.432Z,10.63
2019-02-23T02:33:32.921Z,14.60
2019-02-23T02:36:08.147Z,14.83
2019-02-23T02:38:41.662Z,13.60
2019-02-23T02:41:16.913Z,14.83
2019-02-23T02:43:50.639Z,15.60
2019-02-23T02:46:25.765Z,15.50
2019-02-23T02:48:59.244Z,14.90
2019-02-23T02:51:33.003Z,15.93
2019-02-23T02:54:06.604Z,16.83
2019-02-23T02:56:41.212Z,19.03
2019-02-23T02:59:17.741Z,16.10
2019-02-23T03:01:52.847Z,18.47
2019-02-23T03:04:29.304Z,18.77
2019-02-23T03:07:06.369Z,21.57
2019-02-23T03:09:39.955Z,18.10
2019-02-23T03:12:13.460Z,18.93
2019-02-23T03:14:47.036Z,19.10
2019-02-23T03:17:23.266Z,22.30
2019-02-23T03:19:58.479Z,20.13
2019-02-23T03:22:32.053Z,17.03
2019-02-23T03:25:07.749Z,16.93
2019-02-23T03:27:41.282Z,16.83
2019-02-23T03:30:14.928Z,18.53
2019-02-23T03:32:48.360Z,17.53
2019-02-23T03:35:21.800Z,15.47
2019-02-23T03:37:55.285Z,14.13
2019-02-23T03:40:28.769Z,14.77
2019-02-23T03:43:04.263Z,14.50
2019-02-23T03:45:37.388Z,14.67
2019-02-23T03:48:14.482Z,16.37
2019-02-23T03:50:49.499Z,16.20
2019-02-23T03:53:23.206Z,17.33
2019-02-23T03:55:56.831Z,14.50
2019-02-23T03:58:30.433Z,15.13
2019-02-23T04:01:05.641Z,15.03
2019-02-23T04:03:41.035Z,15.03
2019-02-23T04:06:18.862Z,13.47
2019-02-23T04:08:52.425Z,14.13
2019-02-23T04:11:27.489Z,14.50
2019-02-23T04:14:02.709Z,14.03
2019-02-23T04:16:36.242Z,15.43
2019-02-23T04:19:14.979Z,14.27
2019-02-23T04:21:51.718Z,14.23
2019-02-23T04:24:25.289Z,15.03
2019-02-23T04:27:01.587Z,14.03
2019-02-23T04:29:40.261Z,14.90
2019-02-23T04:32:16.179Z,14.70
2019-02-23T04:34:49.689Z,17.33
2019-02-23T04:37:27.620Z,15.03
2019-02-23T04:40:01.115Z,16.37
2019-02-23T04:42:37.837Z,18.30
2019-02-23T04:45:12.988Z,17.27
2019-02-23T04:47:46.424Z,19.97
2019-02-23T04:50:19.944Z,21.80
2019-02-23T04:52:53.408Z,23.43
2019-02-23T04:55:32.886Z,25.17
2019-02-23T04:58:06.398Z,23.93
2019-02-23T05:00:39.889Z,20.13
2019-02-23T05:03:14.393Z,20.73
2019-02-23T05:05:49.546Z,15.30
2019-02-23T05:08:23.006Z,14.60
2019-02-23T05:10:56.520Z,18.13
2019-02-23T05:13:29.958Z,23.47
2019-02-23T05:16:03.430Z,25.77
2019-02-23T05:18:36.899Z,26.27
2019-02-23T05:21:10.425Z,32.93
2019-02-23T05:23:43.850Z,29.47
2019-02-23T05:26:17.289Z,30.07
2019-02-23T05:28:50.783Z,27.23
2019-02-23T05:31:26.983Z,27.90
2019-02-23T05:34:00.500Z,27.17
2019-02-23T05:36:37.233Z,21.73
2019-02-23T05:39:13.452Z,22.43
2019-02-23T05:41:46.957Z,21.00
2019-02-23T05:44:22.111Z,19.77
2019-02-23T05:46:55.567Z,20.63
2019-02-23T05:49:29.072Z,20.77
2019-02-23T05:52:02.544Z,22.87
2019-02-23T05:54:37.279Z,19.47
2019-02-23T05:57:10.953Z,20.07
2019-02-23T05:59:45.467Z,24.60
2019-02-23T06:02:18.859Z,18.73
2019-02-23T06:04:52.324Z,20.07
2019-02-23T06:07:25.750Z,18.00
2019-02-23T06:09:59.226Z,18.03
2019-02-23T06:12:32.665Z,19.57
2019-02-23T06:15:09.446Z,25.30
2019-02-23T06:17:42.873Z,27.80
2019-02-23T06:20:16.333Z,30.97
2019-02-23T06:22:49.774Z,26.90
2019-02-23T06:25:23.243Z,25.23
2019-02-23T06:27:56.785Z,26.33
2019-02-23T06:30:30.375Z,24.00
2019-02-23T06:33:03.824Z,21.27
2019-02-23T06:35:37.256Z,21.97
2019-02-23T06:38:10.730Z,21.03
2019-02-23T06:40:44.240Z,21.57
2019-02-23T06:43:17.676Z,22.37
2019-02-23T06:45:51.150Z,21.07
2019-02-23T06:48:24.575Z,25.50
2019-02-23T06:50:58.041Z,27.47
2019-02-23T06:53:31.483Z,31.73
2019-02-23T06:56:05.087Z,28.03
2019-02-23T06:58:38.535Z,30.90
2019-02-23T07:01:12.120Z,34.33
2019-02-23T07:03:45.734Z,30.23
2019-02-23T07:06:19.159Z,31.73
2019-02-23T07:08:52.650Z,33.93
2019-02-23T07:11:26.144Z,31.63
2019-02-23T07:14:01.209Z,31.43
2019-02-23T07:19:31.964Z,25.73
2019-02-23T07:22:15.185Z,31.87
2019-02-23T07:24:40.537Z,31.27
2019-02-23T07:27:15.589Z,27.60
2019-02-23T07:29:49.067Z,26.27
2019-02-23T07:32:22.547Z,30.30
2019-02-23T07:34:55.979Z,26.17
2019-02-23T07:37:29.497Z,26.37
2019-02-23T07:40:02.925Z,27.00
2019-02-23T07:42:36.384Z,23.77
2019-02-23T07:45:10.568Z,21.60
2019-02-23T07:47:44.031Z,21.23
2019-02-23T07:50:17.543Z,17.60
2019-02-23T07:52:54.761Z,19.23
2019-02-23T07:55:28.185Z,16.17
2019-02-23T07:58:01.682Z,18.20
2019-02-23T08:00:35.129Z,16.53
2019-02-23T08:03:08.619Z,16.30
2019-02-23T08:05:42.053Z,15.07
2019-02-23T08:08:15.533Z,16.97
2019-02-23T08:10:48.976Z,15.30
2019-02-23T08:13:22.446Z,15.40
2019-02-23T08:15:55.901Z,15.70
2019-02-23T08:18:29.330Z,10.70
2019-02-23T08:21:02.809Z,11.07
2019-02-23T08:23:36.232Z,11.90
2019-02-23T08:26:09.701Z,11.67
2019-02-23T08:28:43.134Z,13.00
2019-02-23T08:31:16.590Z,13.87
2019-02-23T08:33:55.980Z,14.30
2019-02-23T08:36:30.444Z,13.13
2019-02-23T08:39:04.668Z,14.47
2019-02-23T08:41:38.538Z,12.97
2019-02-23T08:44:12.121Z,12.13
2019-02-23T08:46:45.699Z,11.90
2019-02-23T08:49:20.021Z,13.20
2019-02-23T08:51:53.448Z,9.47
2019-02-23T08:54:28.195Z,10.93
2019-02-23T08:57:02.316Z,10.53
2019-02-23T08:59:35.743Z,10.33
2019-02-23T09:02:09.222Z,10.93
2019-02-23T09:04:42.667Z,11.17
2019-02-23T09:07:16.165Z,11.87
2019-02-23T09:09:49.593Z,10.80
2019-02-23T09:12:23.071Z,11.70
2019-02-23T09:14:56.505Z,12.23
2019-02-23T09:17:29.987Z,11.40
2019-02-23T09:20:04.061Z,10.30
2019-02-23T09:22:37.582Z,10.40
2019-02-23T09:25:11.394Z,10.20
2019-02-23T09:27:44.904Z,10.57
2019-02-23T09:30:18.336Z,10.93
2019-02-23T09:32:51.808Z,10.07
2019-02-23T09:35:25.242Z,9.97
2019-02-23T09:37:59.673Z,10.00
2019-02-23T09:40:33.142Z,9.73
2019-02-23T09:43:06.577Z,10.33
2019-02-23T09:45:41.654Z,10.70
2019-02-23T09:48:15.085Z,8.83
2019-02-23T09:50:49.588Z,9.73
2019-02-23T09:53:23.008Z,7.87
2019-02-23T09:55:56.462Z,8.87
2019-02-23T09:58:31.258Z,8.00
2019-02-23T10:01:04.853Z,8.23
2019-02-23T10:03:38.280Z,7.30
2019-02-23T10:06:11.788Z,7.77
2019-02-23T10:08:45.301Z,8.57
2019-02-23T10:11:18.775Z,6.50
2019-02-23T10:13:52.208Z,7.30
2019-02-23T10:16:25.684Z,7.60
2019-02-23T10:18:59.126Z,7.93
2019-02-23T10:21:32.634Z,7.83
2019-02-23T10:24:06.061Z,7.00
2019-02-23T10:26:39.545Z,6.73
2019-02-23T10:29:13.006Z,6.30
2019-02-23T10:31:46.461Z,6.57
2019-02-23T10:34:19.945Z,7.23
2019-02-23T10:36:53.399Z,7.00
2019-02-23T10:39:26.873Z,6.60
2019-02-23T10:42:00.335Z,7.03
2019-02-23T10:44:33.817Z,7.10
2019-02-23T10:47:07.248Z,7.87
2019-02-23T10:49:40.729Z,6.27
2019-02-23T10:52:14.139Z,6.17
2019-02-23T10:54:47.652Z,6.20
2019-02-23T10:57:21.398Z,6.80
2019-02-23T10:59:54.916Z,6.43
2019-02-23T11:02:28.345Z,6.13
2019-02-23T11:05:01.869Z,5.77
2019-02-23T11:07:35.312Z,6.13
2019-02-23T11:10:09.499Z,7.50
2019-02-23T11:12:42.928Z,6.87
2019-02-23T11:15:18.039Z,7.37
2019-02-23T11:17:56.277Z,8.20
2019-02-23T11:20:29.893Z,6.60
2019-02-23T11:23:03.429Z,5.87
2019-02-23T11:25:36.788Z,6.80
2019-02-23T11:28:10.250Z,6.30
2019-02-23T11:30:43.714Z,6.53
2019-02-23T11:33:18.812Z,6.47
2019-02-23T11:35:53.616Z,5.97
2019-02-23T11:38:27.066Z,5.83
2019-02-23T11:41:00.500Z,6.17
2019-02-23T11:43:33.953Z,6.13
2019-02-23T11:46:07.423Z,6.17
2019-02-23T11:48:40.861Z,6.23
2019-02-23T11:51:14.341Z,6.93
2019-02-23T11:53:54.630Z,6.50
2019-02-23T11:56:22.885Z,6.03
2019-02-23T11:58:56.350Z,6.60
2019-02-23T12:01:29.852Z,6.70
2019-02-23T12:04:04.329Z,7.23
2019-02-23T12:06:37.860Z,7.07
2019-02-23T12:09:11.327Z,6.17
2019-02-23T12:11:44.769Z,6.20
2019-02-23T12:14:18.226Z,6.67
2019-02-23T12:16:51.724Z,7.30
2019-02-23T12:19:25.175Z,7.10
2019-02-23T12:21:58.648Z,6.97
2019-02-23T12:24:32.108Z,6.67
2019-02-23T12:27:05.518Z,6.17
2019-02-23T12:29:38.995Z,7.00
2019-02-23T12:32:12.427Z,6.03
2019-02-23T12:34:45.911Z,6.87
2019-02-23T12:37:19.326Z,5.93
2019-02-23T12:39:52.810Z,7.30
2019-02-23T12:42:27.693Z,6.43
2019-02-23T12:45:01.318Z,6.73
2019-02-23T12:47:34.777Z,6.70
2019-02-23T12:50:12.664Z,5.60
2019-02-23T12:52:46.147Z,7.57
2019-02-23T12:55:19.660Z,7.07
2019-02-23T12:57:53.128Z,5.20
2019-02-23T13:00:26.563Z,6.73
2019-02-23T13:03:00.021Z,6.67
2019-02-23T13:05:33.534Z,6.83
2019-02-23T13:08:08.622Z,6.63
2019-02-23T13:10:42.642Z,6.90
2019-02-23T13:13:45.169Z,7.20
2019-02-23T13:16:25.153Z,6.77
2019-02-23T13:19:35.175Z,7.57
2019-02-23T13:22:14.731Z,6.67
2019-02-23T13:25:02.386Z,6.77
2019-02-23T13:27:55.565Z,7.13
2019-02-23T13:30:46.655Z,7.27
2019-02-23T13:33:38.321Z,6.50
2019-02-23T13:36:17.606Z,6.73
2019-02-23T13:39:13.917Z,6.13
2019-02-23T13:41:53.463Z,6.20
2019-02-23T13:44:50.534Z,6.53
2019-02-23T13:47:54.374Z,6.70
2019-02-23T13:50:31.082Z,6.87
2019-02-23T13:53:39.696Z,7.60
2019-02-23T13:56:33.031Z,6.90
2019-02-23T13:59:09.764Z,7.23
2019-02-23T14:02:10.803Z,6.77
2019-02-23T14:05:03.918Z,7.03
2019-02-23T14:07:46.614Z,6.40
2019-02-23T14:10:46.009Z,6.10
2019-02-23T14:13:41.173Z,6.77
2019-02-23T14:16:29.977Z,7.43
2019-02-23T14:19:12.663Z,5.97
2019-02-23T14:22:22.607Z,5.93
2019-02-23T14:25:18.997Z,5.80
2019-02-23T14:28:07.441Z,6.03
2019-02-23T14:30:52.720Z,6.03
2019-02-23T14:33:47.293Z,6.10
2019-02-23T14:36:29.974Z,5.10
2019-02-23T14:39:25.116Z,6.13
2019-02-23T14:42:13.474Z,5.97
2019-02-23T14:45:10.100Z,6.03
2019-02-23T14:48:14.168Z,6.60
2019-02-23T14:51:19.942Z,7.63
2019-02-23T14:54:11.096Z,7.17
2019-02-23T14:57:09.001Z,7.30
2019-02-23T15:00:00.516Z,7.70
2019-02-23T15:02:49.108Z,8.00
2019-02-23T15:05:41.004Z,7.50
2019-02-23T15:08:26.810Z,8.17
2019-02-23T15:11:03.564Z,7.60
2019-02-23T15:14:04.275Z,11.63
2019-02-23T15:16:52.654Z,8.17
2019-02-23T15:19:48.903Z,6.47
2019-02-23T15:22:31.231Z,7.80
2019-02-23T15:25:19.850Z,7.23
2019-02-23T15:28:02.446Z,8.30
2019-02-23T15:30:41.867Z,7.27
2019-02-23T15:33:24.424Z,6.90
2019-02-23T15:36:15.797Z,7.83
2019-02-23T15:39:15.029Z,6.97
2019-02-23T15:42:19.353Z,6.20
2019-02-23T15:45:11.408Z,6.10
2019-02-23T15:48:09.397Z,8.10
2019-02-23T15:50:42.870Z,8.03
2019-02-23T15:53:16.322Z,7.77
2019-02-23T15:55:49.756Z,6.63
2019-02-23T15:58:23.217Z,6.70
2019-02-23T16:01:01.182Z,7.47
2019-02-23T16:03:34.651Z,7.27
2019-02-23T16:06:08.080Z,6.50
2019-02-23T16:08:41.537Z,7.13
2019-02-23T16:11:15.013Z,9.93
2019-02-23T16:13:48.545Z,8.30
2019-02-23T16:16:24.976Z,8.97
2019-02-23T16:19:00.050Z,8.83
2019-02-23T16:21:33.492Z,8.93
2019-02-23T16:24:07.095Z,9.43
2019-02-23T16:26:40.677Z,11.60
2019-02-23T16:29:14.265Z,13.27
2019-02-23T16:31:47.718Z,15.03
2019-02-23T16:34:21.183Z,15.27
2019-02-23T16:36:54.694Z,16.90
2019-02-23T16:39:29.101Z,14.13
2019-02-23T16:42:02.524Z,12.87
2019-02-23T16:44:35.965Z,8.57
2019-02-23T16:47:09.449Z,7.40
2019-02-23T16:49:42.893Z,7.63
2019-02-23T16:52:16.353Z,8.67
2019-02-23T16:54:50.944Z,10.50
2019-02-23T16:57:24.427Z,10.23
2019-02-23T16:59:57.891Z,9.90
2019-02-23T17:02:31.339Z,10.57
2019-02-23T17:05:06.858Z,11.03
2019-02-23T17:07:40.333Z,13.13
2019-02-23T17:10:13.804Z,19.20
2019-02-23T17:12:47.248Z,15.87
2019-02-23T17:15:20.753Z,20.60
2019-02-23T17:17:54.182Z,20.50
2019-02-23T17:20:27.658Z,21.77
2019-02-23T17:23:02.253Z,23.47
2019-02-23T17:25:35.867Z,25.77
2019-02-23T17:28:09.375Z,23.90
2019-02-23T17:30:42.807Z,26.67
2019-02-23T17:33:16.354Z,25.43
2019-02-23T17:35:49.802Z,23.47
2019-02-23T17:38:23.384Z,25.67
2019-02-23T17:40:56.786Z,25.90
2019-02-23T17:43:31.881Z,29.03
2019-02-23T17:46:05.332Z,28.90
2019-02-23T17:48:38.844Z,24.40
2019-02-23T17:51:13.935Z,22.40
2019-02-23T17:53:47.481Z,21.53
2019-02-23T17:56:20.954Z,25.50
2019-02-23T17:58:54.432Z,26.47
2019-02-23T18:01:32.372Z,29.47
2019-02-23T18:04:05.927Z,32.00
2019-02-23T18:06:39.412Z,33.63
2019-02-23T18:09:12.956Z,29.37
2019-02-23T18:11:46.713Z,26.03
2019-02-23T18:14:20.428Z,18.50
2019-02-23T18:16:53.998Z,19.23
2019-02-23T18:19:27.622Z,20.43
2019-02-23T18:22:03.533Z,27.07
2019-02-23T18:24:46.829Z,25.47
2019-02-23T18:27:45.090Z,25.57
2019-02-23T18:30:14.352Z,25.20
2019-02-23T18:32:47.939Z,24.13
2019-02-23T18:35:21.480Z,23.97
2019-02-23T18:37:54.980Z,22.87
2019-02-23T18:40:29.130Z,24.40
2019-02-23T18:43:02.860Z,26.07
2019-02-23T18:45:37.687Z,28.10
2019-02-23T18:48:11.382Z,29.13
2019-02-23T18:50:44.990Z,30.50
2019-02-23T18:53:18.551Z,29.40
2019-02-23T18:55:52.162Z,28.73
2019-02-23T18:58:25.845Z,28.10
2019-02-23T19:00:59.317Z,28.80
2019-02-23T19:03:32.822Z,27.10
2019-02-23T19:06:06.310Z,26.37
2019-02-23T19:08:40.967Z,24.73
2019-02-23T19:11:16.155Z,24.30
2019-02-23T19:13:49.624Z,24.33
2019-02-23T19:16:24.978Z,25.70
2019-02-23T19:18:58.560Z,27.57
2019-02-23T19:21:32.073Z,29.00
2019-02-23T19:24:05.543Z,28.13
2019-02-23T19:26:41.182Z,30.67
2019-02-23T19:29:14.622Z,28.03
2019-02-23T19:31:49.855Z,31.57
2019-02-23T19:34:23.381Z,28.93
2019-02-23T19:36:56.852Z,30.70
2019-02-23T19:39:30.579Z,28.07
2019-02-23T19:42:04.169Z,28.63
2019-02-23T19:44:37.642Z,28.27
2019-02-23T19:47:11.370Z,29.17
2019-02-23T19:49:47.541Z,28.60
2019-02-23T19:52:20.978Z,28.67
2019-02-23T19:54:54.443Z,29.80
2019-02-23T19:57:27.908Z,25.57
2019-02-23T20:00:01.375Z,26.43
2019-02-23T20:02:34.858Z,25.27
2019-02-23T20:05:09.672Z,26.80
2019-02-23T20:07:43.746Z,25.53
2019-02-23T20:10:17.204Z,25.97
2019-02-23T20:12:50.711Z,27.30
2019-02-23T20:15:24.218Z,27.70
2019-02-23T20:17:57.801Z,25.97
2019-02-23T20:20:31.304Z,26.87
2019-02-23T20:23:04.747Z,28.80
2019-02-23T20:25:38.214Z,25.90
2019-02-23T20:28:11.670Z,25.53
2019-02-23T20:30:45.157Z,24.67
2019-02-23T20:33:19.105Z,25.67
2019-02-23T20:35:52.693Z,26.60
2019-02-23T20:38:27.970Z,25.80
2019-02-23T20:41:01.441Z,27.67
2019-02-23T20:43:35.011Z,28.03
2019-02-23T20:46:08.452Z,26.23
2019-02-23T20:48:43.570Z,25.83
2019-02-23T20:51:17.155Z,26.57
2019-02-23T20:53:50.609Z,26.70
2019-02-23T20:56:24.040Z,26.47
2019-02-23T20:58:57.528Z,25.73
2019-02-23T21:01:30.957Z,26.93
2019-02-23T21:04:04.453Z,24.90
2019-02-23T21:06:42.306Z,26.93
2019-02-23T21:09:18.678Z,24.83
2019-02-23T21:11:52.152Z,24.33
2019-02-23T21:14:25.661Z,24.50
2019-02-23T21:16:59.081Z,24.63
2019-02-23T21:19:32.512Z,23.93
2019-02-23T21:22:05.968Z,23.47
2019-02-23T21:24:39.461Z,22.60
2019-02-23T21:27:13.343Z,24.00
2019-02-23T21:29:47.032Z,24.67
2019-02-23T21:32:20.464Z,23.07
2019-02-23T21:34:53.936Z,26.47
2019-02-23T21:37:27.650Z,30.20
2019-02-23T21:40:01.461Z,31.77
2019-02-23T21:42:34.880Z,34.63
2019-02-23T21:45:08.988Z,39.73
2019-02-23T21:47:42.497Z,35.33
2019-02-23T21:50:15.929Z,39.00
2019-02-23T21:52:49.413Z,42.40
2019-02-23T21:55:22.862Z,39.07
2019-02-23T21:57:56.328Z,37.30
2019-02-23T22:00:33.005Z,36.87
2019-02-23T22:03:10.408Z,36.73
2019-02-23T22:05:43.976Z,35.97
2019-02-23T22:08:23.265Z,40.27
2019-02-23T22:10:56.810Z,40.63
2019-02-23T22:13:30.289Z,39.10
2019-02-23T22:16:04.384Z,39.63
2019-02-23T22:18:37.996Z,45.40
2019-02-23T22:21:11.610Z,42.30
2019-02-23T22:23:45.072Z,40.97
2019-02-23T22:26:23.251Z,44.47
2019-02-23T22:28:56.806Z,40.73
2019-02-23T22:31:33.086Z,40.37
2019-02-23T22:34:07.823Z,41.63
2019-02-23T22:36:54.208Z,38.67
2019-02-23T22:39:31.741Z,38.37
2019-02-23T22:42:07.471Z,38.70
2019-02-23T22:44:40.997Z,39.20
2019-02-23T22:47:14.525Z,38.90
2019-02-23T22:49:48.016Z,38.57
2019-02-23T22:52:21.517Z,40.43
2019-02-23T22:54:56.837Z,40.97
2019-02-23T22:57:30.288Z,39.27
2019-02-23T23:00:03.754Z,43.73
2019-02-23T23:02:37.200Z,43.77
2019-02-23T23:05:12.386Z,47.40
2019-02-23T23:07:45.830Z,52.53
2019-02-23T23:10:19.338Z,47.83
2019-02-23T23:12:55.685Z,48.97
2019-02-23T23:15:31.333Z,45.20
2019-02-23T23:18:04.804Z,42.13
2019-02-23T23:20:38.280Z,38.73
2019-02-23T23:23:11.884Z,40.07
2019-02-23T23:25:47.408Z,38.87
2019-02-23T23:28:22.585Z,39.03
2019-02-23T23:30:56.102Z,37.03
2019-02-23T23:33:31.016Z,36.83
2019-02-23T23:36:08.311Z,34.63
2019-02-23T23:38:43.470Z,35.03
2019-02-23T23:41:19.883Z,31.97
2019-02-23T23:43:55.060Z,33.70
2019-02-23T23:46:34.565Z,32.23
2019-02-23T23:49:08.063Z,32.13
2019-02-23T23:51:44.373Z,31.33
2019-02-23T23:54:19.881Z,31.90
2019-02-23T23:56:53.576Z,29.60
2019-02-23T23:59:34.081Z,29.23
